sensor_id;sensor_type;location;lat;lon;timestamp;temperature;humidity
36752;DHT22;22718;49.494;7.036;2022-10-30T00:01:33;16.10;99.90
36752;DHT22;22718;49.494;7.036;2022-10-30T00:03:58;16.10;99.90
36752;DHT22;22718;49.494;7.036;2022-10-30T00:06:24;16.10;99.90
36752;DHT22;22718;49.494;7.036;2022-10-30T00:08:50;16.00;99.90
36752;DHT22;22718;49.494;7.036;2022-10-30T00:11:15;16.00;99.90
36752;DHT22;22718;49.494;7.036;2022-10-30T00:13:42;16.00;99.90
36752;DHT22;22718;49.494;7.036;2022-10-30T00:16:08;16.00;99.90
36752;DHT22;22718;49.494;7.036;2022-10-30T00:18:35;16.00;99.90
36752;DHT22;22718;49.494;7.036;2022-10-30T00:21:09;15.90;99.90
36752;DHT22;22718;49.494;7.036;2022-10-30T00:23:36;16.00;99.90
36752;DHT22;22718;49.494;7.036;2022-10-30T00:26:06;16.00;99.90
36752;DHT22;22718;49.494;7.036;2022-10-30T00:28:32;16.00;99.90
36752;DHT22;22718;49.494;7.036;2022-10-30T00:31:02;15.90;99.90
36752;DHT22;22718;49.494;7.036;2022-10-30T00:33:28;15.90;99.90
36752;DHT22;22718;49.494;7.036;2022-10-30T00:35:54;15.90;99.90
36752;DHT22;22718;49.494;7.036;2022-10-30T00:38:20;16.00;99.90
36752;DHT22;22718;49.494;7.036;2022-10-30T00:40:45;16.00;99.90
36752;DHT22;22718;49.494;7.036;2022-10-30T00:43:35;16.10;99.90
36752;DHT22;22718;49.494;7.036;2022-10-30T00:48:42;16.10;99.90
36752;DHT22;22718;49.494;7.036;2022-10-30T00:51:10;16.10;99.90
36752;DHT22;22718;49.494;7.036;2022-10-30T00:53:41;16.00;99.90
36752;DHT22;22718;49.494;7.036;2022-10-30T00:56:10;16.10;99.90
36752;DHT22;22718;49.494;7.036;2022-10-30T00:58:40;16.10;99.90
36752;DHT22;22718;49.494;7.036;2022-10-30T01:01:16;16.00;99.90
36752;DHT22;22718;49.494;7.036;2022-10-30T01:03:43;16.00;99.90
36752;DHT22;22718;49.494;7.036;2022-10-30T01:06:10;16.20;99.90
36752;DHT22;22718;49.494;7.036;2022-10-30T01:08:39;16.20;99.90
36752;DHT22;22718;49.494;7.036;2022-10-30T01:11:05;16.20;99.90
36752;DHT22;22718;49.494;7.036;2022-10-30T01:13:33;16.20;99.90
36752;DHT22;22718;49.494;7.036;2022-10-30T01:18:32;16.20;99.90
36752;DHT22;22718;49.494;7.036;2022-10-30T01:35:26;16.10;99.90
36752;DHT22;22718;49.494;7.036;2022-10-30T01:40:47;16.20;99.90
36752;DHT22;22718;49.494;7.036;2022-10-30T01:43:12;16.10;99.90
36752;DHT22;22718;49.494;7.036;2022-10-30T01:56:58;16.10;99.90
36752;DHT22;22718;49.494;7.036;2022-10-30T01:59:29;16.10;99.90
36752;DHT22;22718;49.494;7.036;2022-10-30T02:01:57;16.10;99.90
36752;DHT22;22718;49.494;7.036;2022-10-30T02:04:24;16.10;99.90
36752;DHT22;22718;49.494;7.036;2022-10-30T02:06:50;16.10;99.90
36752;DHT22;22718;49.494;7.036;2022-10-30T02:09:16;16.10;99.90
36752;DHT22;22718;49.494;7.036;2022-10-30T02:11:44;16.10;99.90
36752;DHT22;22718;49.494;7.036;2022-10-30T02:14:12;16.00;99.90
36752;DHT22;22718;49.494;7.036;2022-10-30T02:16:43;16.00;99.90
36752;DHT22;22718;49.494;7.036;2022-10-30T02:19:10;16.00;99.90
36752;DHT22;22718;49.494;7.036;2022-10-30T02:21:38;16.00;99.90
36752;DHT22;22718;49.494;7.036;2022-10-30T02:24:04;16.00;99.90
36752;DHT22;22718;49.494;7.036;2022-10-30T02:26:30;15.90;99.90
36752;DHT22;22718;49.494;7.036;2022-10-30T02:28:56;15.90;99.90
36752;DHT22;22718;49.494;7.036;2022-10-30T02:31:21;15.90;99.90
36752;DHT22;22718;49.494;7.036;2022-10-30T02:33:48;15.90;99.90
36752;DHT22;22718;49.494;7.036;2022-10-30T02:36:13;15.90;99.90
36752;DHT22;22718;49.494;7.036;2022-10-30T02:38:43;15.90;99.90
36752;DHT22;22718;49.494;7.036;2022-10-30T02:41:10;15.80;99.90
36752;DHT22;22718;49.494;7.036;2022-10-30T02:43:35;15.80;99.90
36752;DHT22;22718;49.494;7.036;2022-10-30T02:46:01;15.70;99.90
36752;DHT22;22718;49.494;7.036;2022-10-30T02:48:28;15.70;99.90
36752;DHT22;22718;49.494;7.036;2022-10-30T02:51:01;15.60;99.90
36752;DHT22;22718;49.494;7.036;2022-10-30T02:53:27;15.60;99.90
36752;DHT22;22718;49.494;7.036;2022-10-30T02:55:54;15.50;99.90
36752;DHT22;22718;49.494;7.036;2022-10-30T02:58:20;15.40;99.90
36752;DHT22;22718;49.494;7.036;2022-10-30T03:00:45;15.40;99.90
36752;DHT22;22718;49.494;7.036;2022-10-30T03:03:11;15.30;99.90
36752;DHT22;22718;49.494;7.036;2022-10-30T03:05:36;15.20;99.90
36752;DHT22;22718;49.494;7.036;2022-10-30T03:08:02;15.10;99.90
36752;DHT22;22718;49.494;7.036;2022-10-30T03:10:28;15.00;99.90
36752;DHT22;22718;49.494;7.036;2022-10-30T03:12:53;15.00;99.90
36752;DHT22;22718;49.494;7.036;2022-10-30T03:15:22;15.00;99.90
36752;DHT22;22718;49.494;7.036;2022-10-30T03:17:47;14.90;99.90
36752;DHT22;22718;49.494;7.036;2022-10-30T03:20:17;14.90;99.90
36752;DHT22;22718;49.494;7.036;2022-10-30T03:22:42;14.80;99.90
36752;DHT22;22718;49.494;7.036;2022-10-30T03:25:08;14.70;99.90
36752;DHT22;22718;49.494;7.036;2022-10-30T03:27:36;14.70;99.90
36752;DHT22;22718;49.494;7.036;2022-10-30T03:30:02;14.60;99.90
36752;DHT22;22718;49.494;7.036;2022-10-30T03:32:28;14.60;99.90
36752;DHT22;22718;49.494;7.036;2022-10-30T03:34:54;14.50;99.90
36752;DHT22;22718;49.494;7.036;2022-10-30T03:37:19;14.40;99.90
36752;DHT22;22718;49.494;7.036;2022-10-30T03:39:45;14.40;99.90
36752;DHT22;22718;49.494;7.036;2022-10-30T03:42:11;14.30;99.90
36752;DHT22;22718;49.494;7.036;2022-10-30T03:44:36;14.20;99.90
36752;DHT22;22718;49.494;7.036;2022-10-30T03:47:02;14.20;99.90
36752;DHT22;22718;49.494;7.036;2022-10-30T03:49:28;14.10;99.90
36752;DHT22;22718;49.494;7.036;2022-10-30T03:51:53;14.10;99.90
36752;DHT22;22718;49.494;7.036;2022-10-30T03:54:19;14.00;99.90
36752;DHT22;22718;49.494;7.036;2022-10-30T03:56:45;14.00;99.90
36752;DHT22;22718;49.494;7.036;2022-10-30T03:59:10;13.90;99.90
36752;DHT22;22718;49.494;7.036;2022-10-30T04:01:37;13.90;99.90
36752;DHT22;22718;49.494;7.036;2022-10-30T04:04:02;13.90;99.90
36752;DHT22;22718;49.494;7.036;2022-10-30T04:06:31;13.90;99.90
36752;DHT22;22718;49.494;7.036;2022-10-30T04:08:57;13.90;99.90
36752;DHT22;22718;49.494;7.036;2022-10-30T04:11:22;14.00;99.90
36752;DHT22;22718;49.494;7.036;2022-10-30T04:13:48;13.90;99.90
36752;DHT22;22718;49.494;7.036;2022-10-30T04:16:17;13.90;99.90
36752;DHT22;22718;49.494;7.036;2022-10-30T04:18:42;13.90;99.90
36752;DHT22;22718;49.494;7.036;2022-10-30T04:21:08;13.90;99.90
36752;DHT22;22718;49.494;7.036;2022-10-30T04:23:33;13.90;99.90
36752;DHT22;22718;49.494;7.036;2022-10-30T04:26:00;13.90;99.90
36752;DHT22;22718;49.494;7.036;2022-10-30T04:28:26;13.80;99.90
36752;DHT22;22718;49.494;7.036;2022-10-30T04:30:52;13.80;99.90
36752;DHT22;22718;49.494;7.036;2022-10-30T04:33:20;13.70;99.90
36752;DHT22;22718;49.494;7.036;2022-10-30T04:35:46;13.70;99.90
36752;DHT22;22718;49.494;7.036;2022-10-30T04:38:13;13.70;99.90
36752;DHT22;22718;49.494;7.036;2022-10-30T04:40:40;13.70;99.90
36752;DHT22;22718;49.494;7.036;2022-10-30T04:43:08;13.60;99.90
36752;DHT22;22718;49.494;7.036;2022-10-30T04:45:34;13.70;99.90
36752;DHT22;22718;49.494;7.036;2022-10-30T04:48:02;13.60;99.90
36752;DHT22;22718;49.494;7.036;2022-10-30T04:50:32;13.60;99.90
36752;DHT22;22718;49.494;7.036;2022-10-30T04:53:14;13.60;99.90
36752;DHT22;22718;49.494;7.036;2022-10-30T04:55:41;13.60;99.90
36752;DHT22;22718;49.494;7.036;2022-10-30T04:58:08;13.60;99.90
36752;DHT22;22718;49.494;7.036;2022-10-30T05:00:34;13.50;99.90
36752;DHT22;22718;49.494;7.036;2022-10-30T05:03:00;13.50;99.90
36752;DHT22;22718;49.494;7.036;2022-10-30T05:05:27;13.50;99.90
36752;DHT22;22718;49.494;7.036;2022-10-30T05:07:53;13.50;99.90
36752;DHT22;22718;49.494;7.036;2022-10-30T05:10:21;13.40;99.90
36752;DHT22;22718;49.494;7.036;2022-10-30T05:12:47;13.40;99.90
36752;DHT22;22718;49.494;7.036;2022-10-30T05:15:13;13.30;99.90
36752;DHT22;22718;49.494;7.036;2022-10-30T05:17:42;13.30;99.90
36752;DHT22;22718;49.494;7.036;2022-10-30T05:20:08;13.30;99.90
36752;DHT22;22718;49.494;7.036;2022-10-30T05:22:34;13.30;99.90
36752;DHT22;22718;49.494;7.036;2022-10-30T05:24:59;13.30;99.90
36752;DHT22;22718;49.494;7.036;2022-10-30T05:27:25;13.30;99.90
36752;DHT22;22718;49.494;7.036;2022-10-30T05:29:50;13.20;99.90
36752;DHT22;22718;49.494;7.036;2022-10-30T05:32:19;13.20;99.90
36752;DHT22;22718;49.494;7.036;2022-10-30T05:34:45;13.10;99.90
36752;DHT22;22718;49.494;7.036;2022-10-30T05:37:10;13.00;99.90
36752;DHT22;22718;49.494;7.036;2022-10-30T05:39:36;13.00;99.90
36752;DHT22;22718;49.494;7.036;2022-10-30T05:42:02;12.90;99.90
36752;DHT22;22718;49.494;7.036;2022-10-30T05:44:27;12.90;99.90
36752;DHT22;22718;49.494;7.036;2022-10-30T05:46:53;12.80;99.90
36752;DHT22;22718;49.494;7.036;2022-10-30T05:49:18;12.80;99.90
36752;DHT22;22718;49.494;7.036;2022-10-30T05:51:44;12.80;99.90
36752;DHT22;22718;49.494;7.036;2022-10-30T05:54:09;12.80;99.90
36752;DHT22;22718;49.494;7.036;2022-10-30T05:56:35;12.80;99.90
36752;DHT22;22718;49.494;7.036;2022-10-30T05:59:01;12.80;99.90
36752;DHT22;22718;49.494;7.036;2022-10-30T06:01:26;12.80;99.90
36752;DHT22;22718;49.494;7.036;2022-10-30T06:03:52;12.80;99.90
36752;DHT22;22718;49.494;7.036;2022-10-30T06:06:18;12.80;99.90
36752;DHT22;22718;49.494;7.036;2022-10-30T06:08:43;12.80;99.90
36752;DHT22;22718;49.494;7.036;2022-10-30T06:11:09;12.80;99.90
36752;DHT22;22718;49.494;7.036;2022-10-30T06:13:34;12.80;99.90
36752;DHT22;22718;49.494;7.036;2022-10-30T06:16:00;12.80;99.90
36752;DHT22;22718;49.494;7.036;2022-10-30T06:18:26;12.80;99.90
36752;DHT22;22718;49.494;7.036;2022-10-30T06:20:54;12.80;99.90
36752;DHT22;22718;49.494;7.036;2022-10-30T06:23:20;12.80;99.90
36752;DHT22;22718;49.494;7.036;2022-10-30T06:25:46;12.70;99.90
36752;DHT22;22718;49.494;7.036;2022-10-30T06:28:12;12.70;99.90
36752;DHT22;22718;49.494;7.036;2022-10-30T06:30:38;12.70;99.90
36752;DHT22;22718;49.494;7.036;2022-10-30T06:33:05;12.80;99.90
36752;DHT22;22718;49.494;7.036;2022-10-30T06:35:31;12.80;99.90
36752;DHT22;22718;49.494;7.036;2022-10-30T06:37:57;12.80;99.90
36752;DHT22;22718;49.494;7.036;2022-10-30T06:40:25;12.80;99.90
36752;DHT22;22718;49.494;7.036;2022-10-30T06:42:52;12.80;99.90
36752;DHT22;22718;49.494;7.036;2022-10-30T06:45:19;12.90;99.90
36752;DHT22;22718;49.494;7.036;2022-10-30T06:47:46;12.90;99.90
36752;DHT22;22718;49.494;7.036;2022-10-30T06:50:14;12.90;99.90
36752;DHT22;22718;49.494;7.036;2022-10-30T06:52:40;12.90;99.90
36752;DHT22;22718;49.494;7.036;2022-10-30T06:55:07;12.90;99.90
36752;DHT22;22718;49.494;7.036;2022-10-30T06:57:34;12.90;99.90
36752;DHT22;22718;49.494;7.036;2022-10-30T06:59:59;12.90;99.90
36752;DHT22;22718;49.494;7.036;2022-10-30T07:02:25;13.00;99.90
36752;DHT22;22718;49.494;7.036;2022-10-30T07:04:51;13.00;99.90
36752;DHT22;22718;49.494;7.036;2022-10-30T07:07:17;13.00;99.90
36752;DHT22;22718;49.494;7.036;2022-10-30T07:09:42;13.00;99.90
36752;DHT22;22718;49.494;7.036;2022-10-30T07:12:10;13.10;99.90
36752;DHT22;22718;49.494;7.036;2022-10-30T07:14:36;13.20;99.90
36752;DHT22;22718;49.494;7.036;2022-10-30T07:17:01;13.30;99.90
36752;DHT22;22718;49.494;7.036;2022-10-30T07:19:27;13.40;99.90
36752;DHT22;22718;49.494;7.036;2022-10-30T07:21:52;13.60;99.90
36752;DHT22;22718;49.494;7.036;2022-10-30T07:24:18;13.80;99.90
36752;DHT22;22718;49.494;7.036;2022-10-30T07:26:44;13.90;99.90
36752;DHT22;22718;49.494;7.036;2022-10-30T07:29:10;14.10;99.90
36752;DHT22;22718;49.494;7.036;2022-10-30T07:31:35;14.20;99.90
36752;DHT22;22718;49.494;7.036;2022-10-30T07:34:01;14.40;99.90
36752;DHT22;22718;49.494;7.036;2022-10-30T07:36:27;14.50;99.90
36752;DHT22;22718;49.494;7.036;2022-10-30T07:38:52;14.60;99.90
36752;DHT22;22718;49.494;7.036;2022-10-30T07:41:18;14.80;99.90
36752;DHT22;22718;49.494;7.036;2022-10-30T07:43:45;15.00;99.90
36752;DHT22;22718;49.494;7.036;2022-10-30T07:46:11;15.20;99.90
36752;DHT22;22718;49.494;7.036;2022-10-30T07:48:39;15.40;99.90
36752;DHT22;22718;49.494;7.036;2022-10-30T07:51:05;15.60;99.90
36752;DHT22;22718;49.494;7.036;2022-10-30T07:53:32;15.80;99.90
36752;DHT22;22718;49.494;7.036;2022-10-30T07:55:57;16.00;99.90
36752;DHT22;22718;49.494;7.036;2022-10-30T07:58:23;16.10;99.90
36752;DHT22;22718;49.494;7.036;2022-10-30T08:00:49;16.30;99.90
36752;DHT22;22718;49.494;7.036;2022-10-30T08:03:15;16.50;99.90
36752;DHT22;22718;49.494;7.036;2022-10-30T08:05:41;16.60;99.90
36752;DHT22;22718;49.494;7.036;2022-10-30T08:08:07;16.80;99.90
36752;DHT22;22718;49.494;7.036;2022-10-30T08:10:34;16.90;99.90
36752;DHT22;22718;49.494;7.036;2022-10-30T08:13:01;16.90;99.90
36752;DHT22;22718;49.494;7.036;2022-10-30T08:15:28;17.00;99.90
36752;DHT22;22718;49.494;7.036;2022-10-30T08:17:54;17.10;99.90
36752;DHT22;22718;49.494;7.036;2022-10-30T08:20:22;17.20;99.90
36752;DHT22;22718;49.494;7.036;2022-10-30T08:22:55;16.90;99.90
36752;DHT22;22718;49.494;7.036;2022-10-30T08:25:31;16.80;99.90
36752;DHT22;22718;49.494;7.036;2022-10-30T08:27:59;16.70;99.90
36752;DHT22;22718;49.494;7.036;2022-10-30T08:30:27;16.60;99.90
36752;DHT22;22718;49.494;7.036;2022-10-30T08:33:02;16.70;99.90
36752;DHT22;22718;49.494;7.036;2022-10-30T08:35:28;16.80;99.90
36752;DHT22;22718;49.494;7.036;2022-10-30T08:37:57;17.00;99.90
36752;DHT22;22718;49.494;7.036;2022-10-30T08:40:24;17.00;99.90
36752;DHT22;22718;49.494;7.036;2022-10-30T08:42:52;17.10;99.90
36752;DHT22;22718;49.494;7.036;2022-10-30T08:45:18;17.20;99.90
36752;DHT22;22718;49.494;7.036;2022-10-30T08:47:47;17.20;99.90
36752;DHT22;22718;49.494;7.036;2022-10-30T08:50:13;17.40;99.90
36752;DHT22;22718;49.494;7.036;2022-10-30T08:52:38;17.50;99.90
36752;DHT22;22718;49.494;7.036;2022-10-30T08:55:05;17.80;99.90
36752;DHT22;22718;49.494;7.036;2022-10-30T08:57:35;17.90;99.90
36752;DHT22;22718;49.494;7.036;2022-10-30T09:00:02;18.20;99.90
36752;DHT22;22718;49.494;7.036;2022-10-30T09:02:28;18.40;99.90
36752;DHT22;22718;49.494;7.036;2022-10-30T09:04:54;18.70;99.90
36752;DHT22;22718;49.494;7.036;2022-10-30T09:07:19;18.70;99.90
36752;DHT22;22718;49.494;7.036;2022-10-30T09:09:45;18.80;99.90
36752;DHT22;22718;49.494;7.036;2022-10-30T09:12:11;18.70;99.90
36752;DHT22;22718;49.494;7.036;2022-10-30T09:14:36;18.70;99.90
36752;DHT22;22718;49.494;7.036;2022-10-30T09:17:02;18.60;99.90
36752;DHT22;22718;49.494;7.036;2022-10-30T09:19:28;18.60;99.90
36752;DHT22;22718;49.494;7.036;2022-10-30T09:21:53;18.70;99.90
36752;DHT22;22718;49.494;7.036;2022-10-30T09:24:19;18.80;99.90
36752;DHT22;22718;49.494;7.036;2022-10-30T09:26:44;18.80;99.90
36752;DHT22;22718;49.494;7.036;2022-10-30T09:29:10;18.80;99.90
36752;DHT22;22718;49.494;7.036;2022-10-30T09:31:36;18.80;99.90
36752;DHT22;22718;49.494;7.036;2022-10-30T09:34:02;18.70;99.90
36752;DHT22;22718;49.494;7.036;2022-10-30T09:36:31;18.80;99.90
36752;DHT22;22718;49.494;7.036;2022-10-30T09:38:57;18.70;99.90
36752;DHT22;22718;49.494;7.036;2022-10-30T09:52:34;19.50;99.90
36752;DHT22;22718;49.494;7.036;2022-10-30T10:00:39;20.20;99.90
36752;DHT22;22718;49.494;7.036;2022-10-30T10:05:43;20.50;99.90
36752;DHT22;22718;49.494;7.036;2022-10-30T10:08:21;20.60;99.90
36752;DHT22;22718;49.494;7.036;2022-10-30T10:10:51;20.70;99.90
36752;DHT22;22718;49.494;7.036;2022-10-30T10:13:41;20.90;99.90
36752;DHT22;22718;49.494;7.036;2022-10-30T10:16:32;21.00;99.90
36752;DHT22;22718;49.494;7.036;2022-10-30T10:21:45;21.40;99.90
36752;DHT22;22718;49.494;7.036;2022-10-30T10:24:21;21.50;99.90
36752;DHT22;22718;49.494;7.036;2022-10-30T10:32:24;21.90;99.90
36752;DHT22;22718;49.494;7.036;2022-10-30T10:37:55;22.30;99.90
36752;DHT22;22718;49.494;7.036;2022-10-30T10:52:15;22.80;99.90
36752;DHT22;22718;49.494;7.036;2022-10-30T10:54:54;22.70;99.90
36752;DHT22;22718;49.494;7.036;2022-10-30T10:57:29;22.80;99.90
36752;DHT22;22718;49.494;7.036;2022-10-30T11:00:13;22.90;99.90
36752;DHT22;22718;49.494;7.036;2022-10-30T11:08:26;22.80;99.90
36752;DHT22;22718;49.494;7.036;2022-10-30T11:11:05;23.00;99.90
36752;DHT22;22718;49.494;7.036;2022-10-30T11:16:28;23.10;99.90
36752;DHT22;22718;49.494;7.036;2022-10-30T11:19:03;23.10;99.90
36752;DHT22;22718;49.494;7.036;2022-10-30T11:21:33;23.20;99.90
36752;DHT22;22718;49.494;7.036;2022-10-30T11:24:00;23.20;99.90
36752;DHT22;22718;49.494;7.036;2022-10-30T11:26:31;23.20;99.90
36752;DHT22;22718;49.494;7.036;2022-10-30T11:31:34;23.00;99.90
36752;DHT22;22718;49.494;7.036;2022-10-30T11:36:53;23.10;99.90
36752;DHT22;22718;49.494;7.036;2022-10-30T11:39:21;23.00;99.90
36752;DHT22;22718;49.494;7.036;2022-10-30T11:42:13;23.10;99.90
36752;DHT22;22718;49.494;7.036;2022-10-30T11:44:40;23.10;99.90
36752;DHT22;22718;49.494;7.036;2022-10-30T11:47:08;23.00;99.90
36752;DHT22;22718;49.494;7.036;2022-10-30T11:49:55;23.00;99.90
36752;DHT22;22718;49.494;7.036;2022-10-30T11:52:24;23.00;99.90
36752;DHT22;22718;49.494;7.036;2022-10-30T11:57:56;23.00;99.90
36752;DHT22;22718;49.494;7.036;2022-10-30T12:00:25;23.00;99.90
36752;DHT22;22718;49.494;7.036;2022-10-30T12:02:53;23.00;99.90
36752;DHT22;22718;49.494;7.036;2022-10-30T12:05:36;22.90;99.90
36752;DHT22;22718;49.494;7.036;2022-10-30T12:11:03;22.80;99.90
36752;DHT22;22718;49.494;7.036;2022-10-30T12:13:37;22.80;99.90
36752;DHT22;22718;49.494;7.036;2022-10-30T12:18:32;22.70;99.90
36752;DHT22;22718;49.494;7.036;2022-10-30T12:21:01;22.70;99.90
36752;DHT22;22718;49.494;7.036;2022-10-30T12:23:28;22.80;99.90
36752;DHT22;22718;49.494;7.036;2022-10-30T12:25:56;22.80;99.90
36752;DHT22;22718;49.494;7.036;2022-10-30T12:28:28;22.70;99.90
36752;DHT22;22718;49.494;7.036;2022-10-30T12:31:12;22.70;99.90
36752;DHT22;22718;49.494;7.036;2022-10-30T12:36:32;22.50;99.90
36752;DHT22;22718;49.494;7.036;2022-10-30T12:39:09;22.50;99.90
36752;DHT22;22718;49.494;7.036;2022-10-30T12:44:40;22.50;99.90
36752;DHT22;22718;49.494;7.036;2022-10-30T12:47:28;22.50;99.90
36752;DHT22;22718;49.494;7.036;2022-10-30T12:50:02;22.60;99.90
36752;DHT22;22718;49.494;7.036;2022-10-30T12:52:44;22.60;99.90
36752;DHT22;22718;49.494;7.036;2022-10-30T12:58:18;22.50;99.90
36752;DHT22;22718;49.494;7.036;2022-10-30T13:01:04;22.40;99.90
36752;DHT22;22718;49.494;7.036;2022-10-30T13:03:51;22.40;99.90
36752;DHT22;22718;49.494;7.036;2022-10-30T13:06:30;22.40;99.90
36752;DHT22;22718;49.494;7.036;2022-10-30T13:14:20;22.40;99.90
36752;DHT22;22718;49.494;7.036;2022-10-30T13:16:46;22.40;99.90
36752;DHT22;22718;49.494;7.036;2022-10-30T13:19:14;22.50;99.90
36752;DHT22;22718;49.494;7.036;2022-10-30T13:22:42;22.50;99.90
36752;DHT22;22718;49.494;7.036;2022-10-30T13:28:05;22.60;99.90
36752;DHT22;22718;49.494;7.036;2022-10-30T13:31:04;22.50;99.90
36752;DHT22;22718;49.494;7.036;2022-10-30T13:33:42;22.60;99.90
36752;DHT22;22718;49.494;7.036;2022-10-30T13:36:26;22.50;99.90
36752;DHT22;22718;49.494;7.036;2022-10-30T13:39:17;22.50;99.90
36752;DHT22;22718;49.494;7.036;2022-10-30T13:50:30;22.50;99.90
36752;DHT22;22718;49.494;7.036;2022-10-30T13:53:01;22.50;99.90
36752;DHT22;22718;49.494;7.036;2022-10-30T13:55:33;22.50;99.90
36752;DHT22;22718;49.494;7.036;2022-10-30T13:58:21;22.60;99.90
36752;DHT22;22718;49.494;7.036;2022-10-30T14:01:14;22.50;99.90
36752;DHT22;22718;49.494;7.036;2022-10-30T14:11:43;21.90;99.90
36752;DHT22;22718;49.494;7.036;2022-10-30T14:16:43;21.60;99.90
36752;DHT22;22718;49.494;7.036;2022-10-30T14:19:15;21.50;99.90
36752;DHT22;22718;49.494;7.036;2022-10-30T14:24:32;21.20;99.90
36752;DHT22;22718;49.494;7.036;2022-10-30T14:31:59;20.80;99.90
36752;DHT22;22718;49.494;7.036;2022-10-30T14:40:44;20.50;99.90
36752;DHT22;22718;49.494;7.036;2022-10-30T14:43:26;20.50;99.90
36752;DHT22;22718;49.494;7.036;2022-10-30T14:46:01;20.40;99.90
36752;DHT22;22718;49.494;7.036;2022-10-30T14:48:48;20.40;99.90
36752;DHT22;22718;49.494;7.036;2022-10-30T14:51:27;20.40;99.90
36752;DHT22;22718;49.494;7.036;2022-10-30T14:56:45;20.40;99.90
36752;DHT22;22718;49.494;7.036;2022-10-30T15:07:32;20.30;99.90
36752;DHT22;22718;49.494;7.036;2022-10-30T15:12:58;20.20;99.90
36752;DHT22;22718;49.494;7.036;2022-10-30T15:15:27;20.10;99.90
36752;DHT22;22718;49.494;7.036;2022-10-30T15:17:56;20.00;99.90
36752;DHT22;22718;49.494;7.036;2022-10-30T15:20:28;19.90;99.90
36752;DHT22;22718;49.494;7.036;2022-10-30T15:23:05;19.80;99.90
36752;DHT22;22718;49.494;7.036;2022-10-30T15:25:38;19.70;99.90
36752;DHT22;22718;49.494;7.036;2022-10-30T15:28:16;19.60;99.90
36752;DHT22;22718;49.494;7.036;2022-10-30T15:31:22;19.40;99.90
36752;DHT22;22718;49.494;7.036;2022-10-30T15:33:49;19.30;99.90
36752;DHT22;22718;49.494;7.036;2022-10-30T15:39:11;19.10;99.90
36752;DHT22;22718;49.494;7.036;2022-10-30T15:41:58;19.00;99.90
36752;DHT22;22718;49.494;7.036;2022-10-30T15:44:30;18.90;99.90
36752;DHT22;22718;49.494;7.036;2022-10-30T15:47:00;18.80;99.90
36752;DHT22;22718;49.494;7.036;2022-10-30T15:49:33;18.70;99.90
36752;DHT22;22718;49.494;7.036;2022-10-30T15:52:02;18.60;99.90
36752;DHT22;22718;49.494;7.036;2022-10-30T15:54:29;18.60;99.90
36752;DHT22;22718;49.494;7.036;2022-10-30T15:56:57;18.50;99.90
36752;DHT22;22718;49.494;7.036;2022-10-30T15:59:49;18.40;99.90
36752;DHT22;22718;49.494;7.036;2022-10-30T16:02:20;18.30;99.90
36752;DHT22;22718;49.494;7.036;2022-10-30T16:04:46;18.10;99.90
36752;DHT22;22718;49.494;7.036;2022-10-30T16:07:24;17.90;99.90
36752;DHT22;22718;49.494;7.036;2022-10-30T16:09:58;17.80;99.90
36752;DHT22;22718;49.494;7.036;2022-10-30T16:12:29;17.60;99.90
36752;DHT22;22718;49.494;7.036;2022-10-30T16:14:57;17.50;99.90
36752;DHT22;22718;49.494;7.036;2022-10-30T16:17:26;17.40;99.90
36752;DHT22;22718;49.494;7.036;2022-10-30T16:19:54;17.20;99.90
36752;DHT22;22718;49.494;7.036;2022-10-30T16:22:32;17.10;99.90
36752;DHT22;22718;49.494;7.036;2022-10-30T16:24:59;17.00;99.90
36752;DHT22;22718;49.494;7.036;2022-10-30T16:27:25;16.90;99.90
36752;DHT22;22718;49.494;7.036;2022-10-30T16:29:56;16.80;99.90
36752;DHT22;22718;49.494;7.036;2022-10-30T16:32:30;16.80;99.90
36752;DHT22;22718;49.494;7.036;2022-10-30T16:34:57;16.70;99.90
36752;DHT22;22718;49.494;7.036;2022-10-30T16:37:37;16.60;99.90
36752;DHT22;22718;49.494;7.036;2022-10-30T16:40:34;16.50;99.90
36752;DHT22;22718;49.494;7.036;2022-10-30T16:43:00;16.40;99.90
36752;DHT22;22718;49.494;7.036;2022-10-30T16:48:01;16.20;99.90
36752;DHT22;22718;49.494;7.036;2022-10-30T16:50:38;16.10;99.90
36752;DHT22;22718;49.494;7.036;2022-10-30T16:53:20;16.00;99.90
36752;DHT22;22718;49.494;7.036;2022-10-30T16:55:51;16.00;99.90
36752;DHT22;22718;49.494;7.036;2022-10-30T16:58:19;15.90;99.90
36752;DHT22;22718;49.494;7.036;2022-10-30T17:01:00;15.90;99.90
36752;DHT22;22718;49.494;7.036;2022-10-30T17:03:27;15.80;99.90
36752;DHT22;22718;49.494;7.036;2022-10-30T17:06:02;15.70;99.90
36752;DHT22;22718;49.494;7.036;2022-10-30T17:08:39;15.70;99.90
36752;DHT22;22718;49.494;7.036;2022-10-30T17:11:16;15.70;99.90
36752;DHT22;22718;49.494;7.036;2022-10-30T17:13:55;15.60;99.90
36752;DHT22;22718;49.494;7.036;2022-10-30T17:18:54;15.60;99.90
36752;DHT22;22718;49.494;7.036;2022-10-30T17:21:26;15.50;99.90
36752;DHT22;22718;49.494;7.036;2022-10-30T17:24:04;15.50;99.90
36752;DHT22;22718;49.494;7.036;2022-10-30T17:26:36;15.50;99.90
36752;DHT22;22718;49.494;7.036;2022-10-30T17:29:04;15.40;99.90
36752;DHT22;22718;49.494;7.036;2022-10-30T17:34:17;15.40;99.90
36752;DHT22;22718;49.494;7.036;2022-10-30T17:36:46;15.40;99.90
36752;DHT22;22718;49.494;7.036;2022-10-30T17:39:12;15.40;99.90
36752;DHT22;22718;49.494;7.036;2022-10-30T17:41:39;15.30;99.90
36752;DHT22;22718;49.494;7.036;2022-10-30T17:44:06;15.20;99.90
36752;DHT22;22718;49.494;7.036;2022-10-30T17:48:58;15.20;99.90
36752;DHT22;22718;49.494;7.036;2022-10-30T17:51:24;15.20;99.90
36752;DHT22;22718;49.494;7.036;2022-10-30T17:53:50;15.20;99.90
36752;DHT22;22718;49.494;7.036;2022-10-30T17:56:26;15.10;99.90
36752;DHT22;22718;49.494;7.036;2022-10-30T17:58:53;15.10;99.90
36752;DHT22;22718;49.494;7.036;2022-10-30T18:01:24;15.10;99.90
36752;DHT22;22718;49.494;7.036;2022-10-30T18:03:52;15.10;99.90
36752;DHT22;22718;49.494;7.036;2022-10-30T18:06:26;15.00;99.90
36752;DHT22;22718;49.494;7.036;2022-10-30T18:08:54;15.00;99.90
36752;DHT22;22718;49.494;7.036;2022-10-30T18:11:22;15.00;99.90
36752;DHT22;22718;49.494;7.036;2022-10-30T18:13:49;15.00;99.90
36752;DHT22;22718;49.494;7.036;2022-10-30T18:16:17;14.90;99.90
36752;DHT22;22718;49.494;7.036;2022-10-30T18:18:44;14.90;99.90
36752;DHT22;22718;49.494;7.036;2022-10-30T18:21:16;14.90;99.90
36752;DHT22;22718;49.494;7.036;2022-10-30T18:23:43;14.80;99.90
36752;DHT22;22718;49.494;7.036;2022-10-30T18:26:14;14.80;99.90
36752;DHT22;22718;49.494;7.036;2022-10-30T18:28:42;14.80;99.90
36752;DHT22;22718;49.494;7.036;2022-10-30T18:31:14;14.70;99.90
36752;DHT22;22718;49.494;7.036;2022-10-30T18:33:49;14.70;99.90
36752;DHT22;22718;49.494;7.036;2022-10-30T18:36:18;14.70;99.90
36752;DHT22;22718;49.494;7.036;2022-10-30T18:38:44;14.60;99.90
36752;DHT22;22718;49.494;7.036;2022-10-30T18:41:41;14.50;99.90